Cranbrook, Canada
Current Conditions -  °F | °C
As of 2:00 PM on Tuesday 21 Oct 2014 (Local Time) from CYXC Reporting Station
Broken Clouds Broken Clouds  
Wind Chill: 54°   Ceiling: 21000
Heat Index: 54°   Visibility: 25mi
Dew Point: 39°   Wind: 13mph
Humidity: 58%   Direction: 180°S
Pressure: 29.77"   Gusts: 20mph
Location:  49.51°N, 115.77°W
Report Text: CYXC 212000Z 18011G17KT 25SM SCT060 BKN210 12/04 A2977 RMK SC4CI2 SLP085 DENSITY ALT 3600FT
Loading
Personal Weather Stations






























Interactive Weather Map
Tropical Storm Tracking
New forecast layout! Learn more

10-Day Weather Forecast

Advertisements
Track Severe Weather on mobile